createdAt,value
2023-10-06T03:21:58.173Z,78.92
2023-10-06T03:25:01.507Z,78.92
2023-10-06T03:28:05.649Z,80.62
2023-10-06T03:31:23.643Z,82.94
2023-10-06T03:34:27.300Z,82.92
2023-10-06T03:37:37.804Z,84.69
2023-10-06T03:40:58.257Z,86.00
2023-10-06T03:44:06.733Z,87.66
2023-10-06T03:47:10.111Z,87.56
2023-10-06T03:50:14.878Z,86.39
2023-10-06T03:53:17.140Z,86.66
2023-10-06T03:56:20.235Z,87.12
2023-10-06T03:59:24.608Z,88.79
2023-10-06T04:02:28.204Z,89.34
2023-10-06T04:05:30.721Z,90.55
2023-10-06T04:08:32.944Z,92.57
2023-10-06T04:11:35.801Z,93.61
2023-10-06T04:14:38.014Z,94.21
2023-10-06T04:17:40.609Z,93.88
2023-10-06T04:20:44.289Z,93.85
2023-10-06T04:23:46.750Z,95.10
2023-10-06T04:26:48.956Z,96.58
2023-10-06T04:29:53.912Z,97.15
2023-10-06T04:32:56.613Z,96.87
2023-10-06T04:36:09.084Z,97.48
2023-10-06T04:39:16.965Z,97.79
2023-10-06T04:42:20.060Z,98.33
2023-10-06T04:45:22.305Z,97.59
2023-10-06T04:48:24.810Z,97.55
2023-10-06T04:51:28.423Z,97.59
2023-10-06T04:54:31.477Z,98.42
2023-10-06T04:57:33.666Z,98.67
2023-10-06T05:00:36.176Z,98.90
2023-10-06T05:03:45.043Z,99.04
2023-10-06T05:06:48.074Z,99.06
2023-10-06T05:09:50.732Z,99.44
2023-10-06T05:12:53.910Z,99.59
2023-10-06T05:15:56.528Z,99.92
2023-10-06T05:18:59.030Z,100.00
2023-10-06T05:22:01.718Z,100.00
2023-10-06T05:25:05.639Z,100.00
2023-10-06T05:28:17.822Z,98.55
2023-10-06T05:31:20.656Z,99.37
2023-10-06T05:34:24.595Z,99.01
2023-10-06T05:37:27.082Z,99.76
2023-10-06T05:40:32.160Z,99.00
2023-10-06T05:43:34.659Z,98.82
2023-10-06T05:46:37.460Z,99.54
2023-10-06T05:49:46.665Z,99.60
2023-10-06T05:52:53.114Z,99.59
2023-10-06T05:55:56.249Z,97.78
2023-10-06T05:58:58.546Z,97.42
2023-10-06T06:02:03.333Z,95.76
2023-10-06T06:05:09.064Z,94.96
2023-10-06T06:08:11.399Z,92.81
2023-10-06T06:11:14.754Z,91.66
2023-10-06T06:14:18.117Z,92.23
2023-10-06T06:17:21.774Z,91.54
2023-10-06T06:20:24.061Z,91.44
2023-10-06T06:23:26.807Z,90.56
2023-10-06T06:26:30.874Z,91.72
2023-10-06T06:29:33.364Z,89.31
2023-10-06T06:32:36.590Z,89.25
2023-10-06T06:35:43.228Z,90.24
2023-10-06T06:38:46.617Z,89.36
2023-10-06T06:41:49.134Z,87.49
2023-10-06T06:44:55.124Z,86.39
2023-10-06T06:47:57.769Z,87.94
2023-10-06T06:51:01.003Z,87.60
2023-10-06T06:54:04.546Z,87.02
2023-10-06T06:57:06.748Z,87.84
2023-10-06T07:00:16.772Z,87.22
2023-10-06T07:03:19.208Z,87.45
2023-10-06T07:06:22.320Z,85.32
2023-10-06T07:09:24.675Z,86.52
2023-10-06T07:12:27.223Z,86.11
2023-10-06T07:15:30.559Z,87.03
2023-10-06T07:18:33.672Z,86.82
2023-10-06T07:21:35.951Z,85.90
2023-10-06T07:24:38.759Z,86.81
2023-10-06T07:27:42.269Z,84.94
2023-10-06T07:30:45.027Z,81.01
2023-10-06T07:33:52.841Z,81.15
2023-10-06T07:36:55.320Z,78.75
2023-10-06T07:39:57.476Z,78.09
2023-10-06T07:42:59.992Z,77.95
2023-10-06T07:46:08.809Z,76.71
2023-10-06T07:49:11.926Z,77.12
2023-10-06T07:52:14.179Z,75.53
2023-10-06T07:55:18.138Z,75.14
2023-10-06T07:58:20.395Z,76.69
2023-10-06T08:01:22.965Z,74.58
2023-10-06T08:04:25.498Z,75.10
2023-10-06T08:07:28.879Z,72.44
2023-10-06T08:10:32.213Z,71.68
2023-10-06T08:13:34.932Z,72.25
2023-10-06T08:16:38.764Z,71.99
2023-10-06T08:19:41.027Z,70.86
2023-10-06T08:22:47.807Z,71.39
2023-10-06T08:26:01.017Z,70.36
2023-10-06T08:29:05.681Z,70.81
2023-10-06T08:32:08.021Z,66.48
2023-10-06T08:35:14.401Z,68.24
2023-10-06T08:38:18.425Z,68.43
2023-10-06T08:41:27.657Z,67.49
2023-10-06T08:44:30.546Z,64.51
2023-10-06T08:47:41.996Z,62.59
2023-10-06T08:51:00.311Z,62.62
2023-10-06T08:54:05.751Z,65.02
2023-10-06T08:57:12.111Z,63.46
2023-10-06T09:00:25.144Z,63.12
2023-10-06T09:03:29.018Z,63.41
2023-10-06T09:06:32.890Z,61.03
2023-10-06T09:09:35.526Z,60.28
2023-10-06T09:12:39.001Z,60.17
2023-10-06T09:15:42.200Z,58.03
2023-10-06T09:19:01.680Z,56.45
2023-10-06T09:22:08.102Z,57.97
2023-10-06T09:25:11.671Z,56.33
2023-10-06T09:28:18.293Z,53.19
2023-10-06T09:31:37.985Z,54.38
2023-10-06T09:34:40.534Z,54.51
2023-10-06T09:37:43.095Z,55.49
2023-10-06T09:40:45.951Z,56.16
2023-10-06T09:43:49.624Z,56.16
2023-10-06T09:46:54.423Z,56.39
2023-10-06T09:49:59.337Z,55.80
2023-10-06T09:53:06.751Z,55.77
2023-10-06T09:56:12.472Z,55.70
2023-10-06T09:59:15.517Z,56.10
2023-10-06T10:02:22.172Z,56.22
2023-10-06T10:05:25.589Z,54.38
2023-10-06T10:08:30.050Z,52.27
2023-10-06T10:11:40.586Z,50.62
2023-10-06T10:15:01.113Z,50.45
2023-10-06T10:18:15.876Z,50.66
2023-10-06T10:21:19.199Z,48.49
2023-10-06T10:27:28.280Z,48.93
2023-10-06T10:31:14.850Z,45.58
2023-10-06T10:34:25.267Z,43.83
2023-10-06T10:37:28.266Z,43.32
2023-10-06T10:40:33.117Z,40.88
2023-10-06T10:43:49.842Z,36.96
2023-10-06T10:47:01.526Z,34.73
2023-10-06T10:50:06.516Z,32.98
2023-10-06T10:53:09.461Z,31.25
2023-10-06T10:56:14.570Z,29.79
2023-10-06T11:02:20.743Z,27.26
2023-10-06T11:05:23.581Z,25.05
2023-10-06T11:08:27.647Z,22.70
2023-10-06T11:11:31.664Z,21.28
2023-10-06T11:14:39.970Z,19.75
2023-10-06T11:17:43.449Z,18.27
2023-10-06T11:20:47.210Z,17.82
2023-10-06T11:23:49.580Z,17.37
2023-10-06T11:26:52.445Z,15.45
2023-10-06T11:29:58.292Z,16.13
2023-10-06T11:33:05.885Z,15.60
2023-10-06T11:36:08.899Z,16.80
2023-10-06T11:39:11.430Z,17.87
2023-10-06T11:42:26.054Z,21.21
2023-10-06T11:45:29.079Z,24.58
2023-10-06T11:48:37.107Z,28.33
2023-10-06T11:51:40.972Z,30.21
2023-10-06T11:54:43.347Z,32.17
2023-10-06T11:57:47.398Z,32.62
2023-10-06T12:00:50.110Z,32.51
2023-10-06T12:03:53.073Z,33.21
2023-10-06T12:06:56.486Z,35.51
2023-10-06T12:10:07.870Z,34.71
2023-10-06T12:13:11.666Z,34.63
2023-10-06T12:16:15.508Z,36.79
2023-10-06T12:19:17.758Z,36.58
2023-10-06T12:22:30.027Z,38.48
2023-10-06T12:25:42.735Z,38.88
2023-10-06T12:28:45.335Z,39.29
2023-10-06T12:31:48.904Z,39.29
2023-10-06T12:34:51.881Z,39.47
2023-10-06T12:37:55.314Z,38.98
2023-10-06T12:40:57.982Z,40.32
2023-10-06T12:44:05.867Z,40.12
2023-10-06T12:47:12.242Z,41.95
2023-10-06T12:50:20.440Z,41.38
2023-10-06T12:53:23.277Z,42.30
2023-10-06T12:56:25.634Z,42.94
2023-10-06T12:59:28.240Z,42.88
2023-10-06T13:02:33.010Z,43.98
2023-10-06T13:05:35.665Z,43.69
2023-10-06T13:08:39.418Z,45.06
2023-10-06T13:11:41.977Z,46.81
2023-10-06T13:14:44.565Z,46.41
2023-10-06T13:17:51.515Z,48.42
2023-10-06T13:20:53.885Z,49.45
2023-10-06T13:24:07.406Z,47.70
2023-10-06T13:27:09.950Z,47.72
2023-10-06T13:30:15.954Z,49.53
2023-10-06T13:33:19.363Z,45.91
2023-10-06T13:36:22.097Z,46.21
2023-10-06T13:39:26.736Z,46.29
2023-10-06T13:42:29.468Z,44.32
2023-10-06T13:45:32.324Z,44.25
2023-10-06T13:48:35.996Z,44.62
2023-10-06T13:51:38.824Z,44.88
2023-10-06T13:54:41.319Z,45.32
2023-10-06T13:57:48.241Z,44.96
2023-10-06T14:00:51.570Z,44.26
2023-10-06T14:03:54.101Z,45.17
2023-10-06T14:06:57.011Z,45.62
2023-10-06T14:09:59.616Z,45.43
2023-10-06T14:13:03.398Z,45.08
2023-10-06T14:16:11.804Z,44.61
2023-10-06T14:19:13.964Z,44.74
2023-10-06T14:22:22.284Z,45.12
2023-10-06T14:25:27.906Z,45.94
2023-10-06T14:28:30.330Z,45.58
2023-10-06T14:31:49.327Z,46.35
2023-10-06T14:34:59.310Z,47.14
2023-10-06T14:38:20.191Z,47.06
2023-10-06T14:41:41.215Z,48.11
2023-10-06T14:45:02.061Z,47.77
2023-10-06T14:48:05.792Z,47.98
2023-10-06T14:51:08.962Z,48.13
2023-10-06T14:54:12.594Z,49.64
2023-10-06T14:57:14.995Z,49.87
2023-10-06T15:00:17.503Z,48.92
2023-10-06T15:03:20.018Z,48.90
2023-10-06T15:06:22.921Z,49.05
2023-10-06T15:09:27.239Z,50.31
2023-10-06T15:12:29.750Z,51.27
2023-10-06T15:15:31.909Z,52.37
2023-10-06T15:18:34.952Z,53.72
2023-10-06T15:21:40.664Z,53.38
2023-10-06T15:24:43.153Z,52.49
2023-10-06T15:27:45.355Z,53.28
